In Rescue
 
Open Full Screen Window  High Contrast Mode
Wind Gusting 16 knots
07
May 20, 2019 1:24 PM CDT
Weather Information
Wind Direction
  050 °
Wind Speed
  07 kt (8 mph)
Wind Gust
  16 kt (18 mph)
Altimeter
30.15 in
Visibility
10 SM
Temperature
12° C
54° F
Dewpoint
02° C
36° F
Humidity
51%
1hr Rain Fall
00.00 in.
24hr Rain Fall
00.00 in.
Sky Condition
Clear
VFR

METAR KMJQ 201824Z AUTO 05007G16KT 10SM CLR 12/02 A3015 RMK AO2

FAA Disclaimer: The data displayed is for advisory purposes only and is not to be used for flight planning or operations.